createdAt,value
2017-08-02T00:01:44.724Z,67.63
2017-08-02T00:04:12.652Z,67.80
2017-08-02T00:06:40.970Z,68.04
2017-08-02T00:09:08.947Z,68.10
2017-08-02T00:11:36.861Z,68.14
2017-08-02T00:14:04.808Z,68.90
2017-08-02T00:16:32.752Z,68.98
2017-08-02T00:19:00.993Z,69.17
2017-08-02T00:21:29.368Z,68.82
2017-08-02T00:23:57.695Z,68.95
2017-08-02T00:26:25.648Z,69.22
2017-08-02T00:28:53.568Z,69.12
2017-08-02T00:31:21.490Z,69.44
2017-08-02T00:33:49.401Z,69.35
2017-08-02T00:36:17.686Z,69.71
2017-08-02T00:38:45.891Z,69.75
2017-08-02T00:41:13.801Z,69.65
2017-08-02T00:43:41.735Z,69.82
2017-08-02T00:46:09.648Z,70.19
2017-08-02T00:48:37.582Z,70.33
2017-08-02T00:51:05.487Z,70.61
2017-08-02T00:53:33.708Z,70.70
2017-08-02T00:56:01.628Z,70.28
2017-08-02T00:58:29.544Z,70.64
2017-08-02T01:00:57.455Z,70.83
2017-08-02T01:03:25.385Z,71.17
2017-08-02T01:05:53.288Z,71.62
2017-08-02T01:08:21.482Z,71.67
2017-08-02T01:10:49.392Z,71.67
2017-08-02T01:13:17.987Z,71.34
2017-08-02T01:15:45.894Z,71.80
2017-08-02T01:18:13.802Z,72.52
2017-08-02T01:20:42.113Z,72.39
2017-08-02T01:23:10.021Z,72.29
2017-08-02T01:25:37.946Z,72.51
2017-08-02T01:28:05.856Z,72.69
2017-08-02T01:30:33.775Z,73.01
2017-08-02T01:33:01.698Z,73.05
2017-08-02T01:35:29.771Z,72.53
2017-08-02T01:37:57.981Z,72.49
2017-08-02T01:40:25.899Z,72.24
2017-08-02T01:42:53.818Z,72.11
2017-08-02T01:45:21.806Z,72.03
2017-08-02T01:47:49.741Z,71.60
2017-08-02T01:50:18.043Z,71.48
2017-08-02T01:52:45.968Z,71.77
2017-08-02T01:55:14.623Z,71.75
2017-08-02T01:57:42.554Z,72.41
2017-08-02T02:00:10.482Z,73.09
2017-08-02T02:02:38.778Z,73.59
2017-08-02T02:05:06.697Z,73.73
2017-08-02T02:07:34.614Z,73.72
2017-08-02T02:10:02.573Z,73.95
2017-08-02T02:12:30.483Z,74.82
2017-08-02T02:14:58.402Z,75.41
2017-08-02T02:17:26.328Z,75.48
2017-08-02T02:19:54.259Z,75.64
2017-08-02T02:22:22.190Z,75.92
2017-08-02T02:24:50.112Z,75.99
2017-08-02T02:27:18.422Z,76.25
2017-08-02T02:29:46.554Z,76.66
2017-08-02T02:32:14.873Z,76.90
2017-08-02T02:34:42.797Z,76.91
2017-08-02T02:37:10.717Z,77.03
2017-08-02T02:39:38.632Z,76.96
2017-08-02T02:42:06.556Z,77.33
2017-08-02T02:44:34.473Z,77.13
2017-08-02T02:47:02.394Z,77.53
2017-08-02T02:49:30.412Z,77.45
2017-08-02T02:51:58.353Z,77.95
2017-08-02T02:54:26.259Z,78.01
2017-08-02T02:56:54.722Z,77.85
2017-08-02T02:59:22.651Z,77.67
2017-08-02T03:01:50.671Z,77.28
2017-08-02T03:04:18.616Z,77.54
2017-08-02T03:06:46.538Z,77.47
2017-08-02T03:09:14.481Z,77.49
2017-08-02T03:11:42.426Z,77.27
2017-08-02T03:14:10.351Z,77.29
2017-08-02T03:16:38.263Z,77.42
2017-08-02T03:19:06.196Z,77.72
2017-08-02T03:21:34.105Z,77.45
2017-08-02T03:24:02.194Z,77.85
2017-08-02T03:26:30.499Z,78.08
2017-08-02T03:28:58.409Z,77.99
2017-08-02T03:31:26.326Z,78.37
2017-08-02T03:33:54.251Z,78.58
2017-08-02T03:36:22.222Z,78.41
2017-08-02T03:38:50.137Z,78.06
2017-08-02T03:41:18.292Z,77.87
2017-08-02T03:43:46.200Z,78.16
2017-08-02T03:46:14.103Z,78.17
2017-08-02T03:48:42.113Z,78.24
2017-08-02T03:51:10.436Z,78.05
2017-08-02T03:53:38.363Z,78.17
2017-08-02T03:56:06.674Z,77.70
2017-08-02T03:58:34.615Z,77.67
2017-08-02T04:01:02.546Z,77.14
2017-08-02T04:03:30.480Z,77.60
2017-08-02T04:05:58.392Z,77.58
2017-08-02T04:08:26.330Z,77.25
2017-08-02T04:10:54.256Z,76.85
2017-08-02T04:13:22.169Z,76.56
2017-08-02T04:15:50.103Z,76.64
2017-08-02T04:18:18.020Z,76.20
2017-08-02T04:20:45.943Z,75.89
2017-08-02T04:23:13.860Z,75.40
2017-08-02T04:25:41.781Z,75.12
2017-08-02T04:28:09.701Z,74.56
2017-08-02T04:30:37.780Z,74.62
2017-08-02T04:33:05.693Z,74.21
2017-08-02T04:35:33.616Z,73.98
2017-08-02T04:38:01.547Z,74.14
2017-08-02T04:40:29.472Z,73.94
2017-08-02T04:42:57.833Z,74.44
2017-08-02T04:45:25.757Z,74.55
2017-08-02T04:47:53.684Z,74.07
2017-08-02T04:50:21.999Z,74.00
2017-08-02T04:52:49.930Z,73.61
2017-08-02T04:55:18.243Z,73.15
2017-08-02T04:57:46.159Z,73.16
2017-08-02T05:00:14.122Z,72.66
2017-08-02T05:02:42.047Z,72.12
2017-08-02T05:05:09.972Z,72.53
2017-08-02T05:07:37.891Z,71.49
2017-08-02T05:10:05.919Z,69.33
2017-08-02T05:12:34.121Z,65.29
2017-08-02T05:15:02.050Z,61.62
2017-08-02T05:17:29.964Z,58.75
2017-08-02T05:19:58.147Z,57.07
2017-08-02T05:22:26.053Z,57.41
2017-08-02T05:24:53.964Z,58.41
2017-08-02T05:27:21.897Z,57.04
2017-08-02T05:29:49.814Z,56.17
2017-08-02T05:32:17.728Z,54.96
2017-08-02T05:34:45.644Z,54.70
2017-08-02T05:37:13.566Z,52.63
2017-08-02T05:39:41.535Z,51.66
2017-08-02T05:42:09.471Z,50.83
2017-08-02T05:44:37.394Z,49.13
2017-08-02T05:47:05.321Z,46.53
2017-08-02T05:49:33.238Z,44.87
2017-08-02T05:52:01.841Z,44.40
2017-08-02T05:54:29.742Z,42.14
2017-08-02T05:56:57.667Z,42.08
2017-08-02T05:59:25.600Z,41.88
2017-08-02T06:01:53.526Z,41.08
2017-08-02T06:04:21.435Z,38.33
2017-08-02T06:06:49.351Z,38.57
2017-08-02T06:09:17.277Z,37.16
2017-08-02T06:11:45.209Z,35.19
2017-08-02T06:14:13.121Z,34.40
2017-08-02T06:16:41.022Z,34.76
2017-08-02T06:19:08.944Z,34.19
2017-08-02T06:21:36.884Z,34.82
2017-08-02T06:24:04.804Z,35.02
2017-08-02T06:26:32.734Z,37.53
2017-08-02T06:29:00.647Z,38.32
2017-08-02T06:31:28.979Z,40.69
2017-08-02T06:33:56.910Z,42.30
2017-08-02T06:36:25.245Z,41.82
2017-08-02T06:38:53.173Z,40.14
2017-08-02T06:41:21.117Z,40.46
2017-08-02T06:43:49.441Z,40.87
2017-08-02T06:46:17.560Z,42.04
2017-08-02T06:48:45.880Z,43.06
2017-08-02T06:51:13.799Z,44.78
2017-08-02T06:53:41.719Z,45.20
2017-08-02T06:56:09.626Z,46.63
2017-08-02T06:58:37.564Z,47.08
2017-08-02T07:01:05.484Z,46.36
2017-08-02T07:03:33.821Z,47.83
2017-08-02T07:06:01.818Z,49.30
2017-08-02T07:08:29.735Z,48.52
2017-08-02T07:10:57.644Z,49.03
2017-08-02T07:13:25.562Z,48.92
2017-08-02T07:15:53.490Z,46.94
2017-08-02T07:18:21.411Z,45.08
2017-08-02T07:20:49.329Z,43.20
2017-08-02T07:23:17.613Z,42.76
2017-08-02T07:25:45.536Z,41.97
2017-08-02T07:28:13.561Z,39.35
2017-08-02T07:30:41.901Z,38.60
2017-08-02T07:33:09.844Z,36.21
2017-08-02T07:35:37.865Z,35.21
2017-08-02T07:38:05.778Z,32.47
2017-08-02T07:40:33.719Z,32.37
2017-08-02T07:43:02.037Z,33.58
2017-08-02T07:45:29.965Z,34.52
2017-08-02T07:47:58.276Z,33.78
2017-08-02T07:50:26.398Z,34.61
2017-08-02T07:52:54.306Z,33.12
2017-08-02T07:55:22.231Z,33.74
2017-08-02T07:57:50.152Z,33.92
2017-08-02T08:00:18.060Z,33.41
2017-08-02T08:02:45.984Z,32.27
2017-08-02T08:05:13.908Z,31.68
2017-08-02T08:07:41.995Z,30.99
2017-08-02T08:10:10.615Z,30.20
2017-08-02T08:12:38.565Z,29.86
2017-08-02T08:15:06.513Z,28.84
2017-08-02T08:17:34.415Z,27.29
2017-08-02T08:20:02.345Z,26.85
2017-08-02T08:22:30.254Z,26.08
2017-08-02T08:24:58.186Z,25.68
2017-08-02T08:27:26.153Z,26.13
2017-08-02T08:29:54.895Z,27.81
2017-08-02T08:32:22.856Z,29.02
2017-08-02T08:34:50.890Z,30.10
2017-08-02T08:37:19.225Z,30.03
2017-08-02T08:39:47.143Z,30.68
2017-08-02T08:42:15.468Z,32.85
2017-08-02T08:44:44.649Z,34.20
2017-08-02T08:47:12.583Z,35.01
2017-08-02T08:49:40.897Z,35.91
2017-08-02T08:52:08.825Z,34.65
2017-08-02T08:54:36.728Z,33.36
2017-08-02T08:57:05.055Z,31.45
2017-08-02T08:59:32.972Z,29.38
2017-08-02T09:02:00.885Z,28.92
2017-08-02T09:04:28.819Z,30.06
2017-08-02T09:06:56.725Z,30.83
2017-08-02T09:09:24.720Z,30.62
2017-08-02T09:11:53.022Z,31.96
2017-08-02T09:14:20.949Z,34.67
2017-08-02T09:16:48.856Z,34.03
2017-08-02T09:19:16.775Z,31.56
2017-08-02T09:21:44.694Z,29.71
2017-08-02T09:24:12.931Z,28.43
2017-08-02T09:26:40.860Z,27.05
2017-08-02T09:29:08.776Z,25.36
2017-08-02T09:31:36.699Z,23.93
2017-08-02T09:34:04.716Z,25.73
2017-08-02T09:36:32.648Z,26.96
2017-08-02T09:39:00.567Z,27.90
2017-08-02T09:41:28.898Z,28.22
2017-08-02T09:43:56.799Z,28.35
2017-08-02T09:46:24.728Z,27.67
2017-08-02T09:48:52.643Z,27.86
2017-08-02T09:51:21.081Z,29.19
2017-08-02T09:53:48.990Z,28.28
2017-08-02T09:56:17.300Z,27.23
2017-08-02T09:58:45.232Z,25.41
2017-08-02T10:01:13.553Z,25.00
2017-08-02T10:03:41.467Z,25.59
2017-08-02T10:06:09.376Z,26.72
2017-08-02T10:08:37.291Z,28.41
2017-08-02T10:11:05.207Z,29.55
2017-08-02T10:13:33.864Z,30.57
2017-08-02T10:16:01.787Z,32.86
2017-08-02T10:18:29.693Z,33.29
2017-08-02T10:20:57.625Z,35.27
2017-08-02T10:23:25.554Z,36.40
2017-08-02T10:25:53.878Z,37.15
2017-08-02T10:28:21.800Z,37.26
2017-08-02T10:30:50.120Z,37.77
2017-08-02T10:33:18.036Z,38.43
2017-08-02T10:35:45.984Z,39.63
2017-08-02T10:38:13.895Z,41.65
2017-08-02T10:40:42.360Z,42.42
2017-08-02T10:43:10.688Z,41.22
2017-08-02T10:45:38.606Z,38.49
2017-08-02T10:48:06.919Z,38.55
2017-08-02T10:50:34.833Z,38.68
2017-08-02T10:53:02.751Z,38.08
2017-08-02T10:55:30.664Z,37.24
2017-08-02T10:57:58.604Z,37.93
2017-08-02T11:00:26.857Z,37.21
2017-08-02T11:02:54.772Z,36.99
2017-08-02T11:05:22.701Z,37.49
2017-08-02T11:07:50.835Z,36.88
2017-08-02T11:10:18.807Z,35.78
2017-08-02T11:12:46.736Z,36.50
2017-08-02T11:15:14.661Z,37.43
2017-08-02T11:17:42.962Z,37.79
2017-08-02T11:20:11.720Z,36.58
2017-08-02T11:22:40.128Z,35.46
2017-08-02T11:25:08.061Z,34.23
2017-08-02T11:27:35.988Z,35.39
2017-08-02T11:30:04.000Z,34.65
2017-08-02T11:32:31.925Z,34.94
2017-08-02T11:35:00.239Z,35.19
2017-08-02T11:37:28.167Z,35.41
2017-08-02T11:39:56.084Z,36.65
2017-08-02T11:42:24.037Z,37.00
2017-08-02T11:44:51.934Z,37.31
2017-08-02T11:47:20.254Z,38.18
2017-08-02T11:49:48.168Z,38.35
2017-08-02T11:52:16.223Z,39.12
2017-08-02T11:54:44.145Z,40.74
2017-08-02T11:57:12.065Z,40.42
2017-08-02T11:59:40.200Z,40.21
2017-08-02T12:02:08.115Z,40.64
2017-08-02T12:04:36.041Z,39.86
2017-08-02T12:07:03.949Z,39.14
2017-08-02T12:09:31.878Z,38.98
2017-08-02T12:11:59.841Z,39.09
2017-08-02T12:14:27.767Z,39.47
2017-08-02T12:16:55.673Z,38.84
2017-08-02T12:19:23.801Z,39.24
2017-08-02T12:21:51.710Z,39.11
2017-08-02T12:24:19.624Z,39.41
2017-08-02T12:26:47.571Z,39.36
2017-08-02T12:29:15.485Z,39.87
2017-08-02T12:31:43.415Z,40.07
2017-08-02T12:34:11.325Z,40.56
2017-08-02T12:36:40.014Z,40.22
2017-08-02T12:39:07.925Z,40.52
2017-08-02T12:41:35.840Z,39.94
2017-08-02T12:44:03.768Z,39.73
2017-08-02T12:46:31.780Z,39.26
2017-08-02T12:48:59.696Z,39.28
2017-08-02T12:51:27.599Z,38.22
2017-08-02T12:53:55.512Z,38.63
2017-08-02T12:56:23.424Z,39.44
2017-08-02T12:58:51.436Z,39.43
2017-08-02T13:01:19.756Z,39.46
2017-08-02T13:03:47.830Z,38.35
2017-08-02T13:06:15.754Z,38.30
2017-08-02T13:08:44.064Z,37.67
2017-08-02T13:11:11.983Z,37.61
2017-08-02T13:13:39.890Z,38.17
2017-08-02T13:16:07.825Z,37.05
2017-08-02T13:18:35.729Z,37.93
2017-08-02T13:21:03.675Z,38.78
2017-08-02T13:23:31.981Z,38.39
2017-08-02T13:25:59.910Z,38.36
2017-08-02T13:28:27.837Z,38.75
2017-08-02T13:30:55.943Z,38.85
2017-08-02T13:33:23.870Z,39.30
2017-08-02T13:35:51.800Z,38.86
2017-08-02T13:38:20.125Z,39.23
2017-08-02T13:40:48.030Z,38.80
2017-08-02T13:43:15.959Z,38.56
2017-08-02T13:45:43.872Z,38.68
2017-08-02T13:48:11.799Z,38.58
2017-08-02T13:50:39.738Z,38.54
2017-08-02T13:53:07.651Z,37.91
2017-08-02T13:55:35.564Z,37.25
2017-08-02T13:58:04.016Z,37.68
2017-08-02T14:00:31.946Z,38.46
2017-08-02T14:03:00.229Z,39.14
2017-08-02T14:05:28.154Z,39.40
2017-08-02T14:07:56.527Z,39.29
2017-08-02T14:10:24.851Z,39.05
2017-08-02T14:12:52.764Z,39.18
2017-08-02T14:15:20.676Z,39.40
2017-08-02T14:17:48.577Z,40.63
2017-08-02T14:20:16.677Z,41.72
2017-08-02T14:22:44.584Z,42.10
2017-08-02T14:25:12.501Z,42.51
2017-08-02T14:27:40.433Z,42.57
2017-08-02T14:30:08.353Z,42.55
2017-08-02T14:32:36.743Z,42.37
2017-08-02T14:35:05.089Z,41.77
2017-08-02T14:37:33.007Z,41.17
2017-08-02T14:40:01.038Z,40.54
2017-08-02T14:42:28.965Z,40.23
2017-08-02T14:44:56.889Z,39.19
2017-08-02T14:47:25.573Z,38.85
2017-08-02T14:49:53.492Z,39.88
2017-08-02T14:52:21.418Z,40.53
2017-08-02T14:54:49.745Z,40.26
2017-08-02T14:57:17.699Z,39.13
2017-08-02T14:59:45.614Z,38.94
2017-08-02T15:02:13.533Z,37.30
2017-08-02T15:04:41.456Z,37.03
2017-08-02T15:07:09.384Z,37.76
2017-08-02T15:09:37.445Z,37.92
2017-08-02T15:12:05.352Z,38.15
2017-08-02T15:14:33.262Z,38.68
2017-08-02T15:17:01.200Z,38.49
2017-08-02T15:19:29.198Z,37.44
2017-08-02T15:21:57.503Z,36.83
2017-08-02T15:24:25.528Z,36.88
2017-08-02T15:26:53.444Z,36.78
2017-08-02T15:29:21.362Z,36.33
2017-08-02T15:31:49.735Z,34.98
2017-08-02T15:34:17.659Z,35.42
2017-08-02T15:36:45.600Z,35.85
2017-08-02T15:39:13.903Z,35.73
2017-08-02T15:41:41.980Z,36.06
2017-08-02T15:44:09.884Z,35.86
2017-08-02T15:46:37.791Z,35.21
2017-08-02T15:49:05.709Z,34.95
2017-08-02T15:51:33.629Z,35.30
2017-08-02T15:54:01.557Z,34.86
2017-08-02T15:56:29.471Z,35.98
2017-08-02T15:58:57.390Z,34.70
2017-08-02T16:01:25.288Z,35.42
2017-08-02T16:03:53.612Z,35.49
2017-08-02T16:08:56.308Z,34.84
2017-08-02T16:11:24.234Z,35.21
2017-08-02T16:13:52.558Z,35.53
2017-08-02T16:16:20.479Z,35.80
2017-08-02T16:18:49.025Z,36.16
2017-08-02T16:21:16.932Z,36.10
2017-08-02T16:23:44.882Z,36.31
2017-08-02T16:26:12.816Z,36.26
2017-08-02T16:28:40.722Z,36.17
2017-08-02T16:31:08.665Z,36.43
2017-08-02T16:33:36.586Z,36.68
2017-08-02T16:36:04.521Z,37.18
2017-08-02T16:39:38.232Z,38.42
2017-08-02T16:42:06.159Z,38.88
2017-08-02T16:44:34.084Z,39.03
2017-08-02T16:47:02.559Z,39.32
2017-08-02T16:49:30.475Z,39.25
2017-08-02T16:51:58.378Z,38.63
2017-08-02T16:54:26.598Z,38.75
2017-08-02T16:56:54.527Z,38.51
2017-08-02T16:59:22.463Z,38.62
2017-08-02T17:01:50.405Z,38.25
2017-08-02T17:04:18.323Z,37.92
2017-08-02T17:06:46.243Z,38.51
2017-08-02T17:09:14.386Z,39.10
2017-08-02T17:11:42.309Z,40.73
2017-08-02T17:14:10.372Z,39.78
2017-08-02T17:16:38.310Z,40.53
2017-08-02T17:19:06.644Z,40.37
2017-08-02T17:21:34.587Z,40.96
2017-08-02T17:24:02.501Z,41.08
2017-08-02T17:26:30.431Z,40.85
2017-08-02T17:28:58.352Z,41.25
2017-08-02T17:31:26.559Z,41.56
2017-08-02T17:33:54.488Z,41.62
2017-08-02T17:36:22.510Z,42.20
2017-08-02T17:38:50.444Z,42.51
2017-08-02T17:41:19.015Z,42.66
2017-08-02T17:43:46.923Z,42.72
2017-08-02T17:46:14.840Z,42.75
2017-08-02T17:48:42.759Z,42.84
2017-08-02T17:51:10.668Z,42.88
2017-08-02T17:53:38.596Z,43.51
2017-08-02T17:56:06.521Z,43.95
2017-08-02T17:58:34.796Z,43.18
2017-08-02T18:01:02.727Z,42.91
2017-08-02T18:03:30.648Z,43.05
2017-08-02T18:05:58.960Z,44.41
2017-08-02T18:08:26.878Z,43.56
2017-08-02T18:10:54.812Z,43.66
2017-08-02T18:13:22.728Z,43.73
2017-08-02T18:15:51.058Z,43.78
2017-08-02T18:18:18.989Z,46.18
2017-08-02T18:20:46.903Z,45.63
2017-08-02T18:23:14.814Z,46.58
2017-08-02T18:25:43.174Z,47.04
2017-08-02T18:28:11.107Z,46.94
2017-08-02T18:30:39.037Z,46.90
2017-08-02T18:33:07.343Z,48.09
2017-08-02T18:35:35.475Z,47.62
2017-08-02T18:38:03.389Z,47.84
2017-08-02T18:40:31.316Z,47.36
2017-08-02T18:42:59.244Z,46.69
2017-08-02T18:45:27.154Z,47.37
2017-08-02T18:47:55.573Z,47.76
2017-08-02T18:50:23.483Z,47.59
2017-08-02T18:52:51.590Z,48.75
2017-08-02T18:55:19.524Z,48.99
2017-08-02T18:57:47.426Z,49.49
2017-08-02T19:00:15.770Z,49.28
2017-08-02T19:02:43.687Z,49.91
2017-08-02T19:05:11.615Z,50.08
2017-08-02T19:07:39.538Z,50.40
2017-08-02T19:10:07.506Z,49.53
2017-08-02T19:12:35.421Z,49.52
2017-08-02T19:15:03.497Z,49.59
2017-08-02T19:17:31.416Z,50.19
2017-08-02T19:19:59.343Z,50.90
2017-08-02T19:22:27.262Z,51.13
2017-08-02T19:24:55.173Z,50.63
2017-08-02T19:27:23.247Z,50.54
2017-08-02T19:29:51.164Z,50.77
2017-08-02T19:32:19.086Z,51.21
2017-08-02T19:34:47.050Z,51.27
2017-08-02T19:37:14.969Z,51.56
2017-08-02T19:39:42.887Z,52.13
2017-08-02T19:42:10.816Z,52.53
2017-08-02T19:44:38.778Z,52.52
2017-08-02T19:47:06.689Z,52.54
2017-08-02T19:49:34.611Z,52.36
2017-08-02T19:52:02.539Z,52.34
2017-08-02T19:54:30.597Z,52.48
2017-08-02T19:56:58.575Z,52.95
2017-08-02T19:59:26.483Z,52.89
2017-08-02T20:01:54.421Z,53.14
2017-08-02T20:04:22.749Z,53.29
2017-08-02T20:06:50.861Z,53.47
2017-08-02T20:09:18.770Z,53.92
2017-08-02T20:11:46.673Z,54.31
2017-08-02T20:14:14.600Z,54.54
2017-08-02T20:16:42.502Z,54.50
2017-08-02T20:19:10.438Z,54.62
2017-08-02T20:21:38.344Z,54.19
2017-08-02T20:24:06.394Z,54.36
2017-08-02T20:26:34.312Z,54.52
2017-08-02T20:29:02.226Z,54.69
2017-08-02T20:31:30.148Z,54.32
2017-08-02T20:33:58.055Z,54.71
2017-08-02T20:36:25.993Z,55.93
2017-08-02T20:38:54.316Z,55.89
2017-08-02T20:41:22.284Z,55.33
2017-08-02T20:43:50.182Z,54.75
2017-08-02T20:46:18.271Z,54.71
2017-08-02T20:48:46.192Z,54.77
2017-08-02T20:51:14.116Z,54.87
2017-08-02T20:53:42.034Z,54.79
2017-08-02T20:56:09.956Z,54.54
2017-08-02T20:58:37.874Z,55.10
2017-08-02T21:01:05.798Z,55.07
2017-08-02T21:03:34.273Z,55.24
2017-08-02T21:06:02.362Z,55.15
2017-08-02T21:08:30.673Z,55.46
2017-08-02T21:10:58.591Z,55.56
2017-08-02T21:13:26.503Z,55.91
2017-08-02T21:15:54.540Z,55.88
2017-08-02T21:18:22.465Z,55.81
2017-08-02T21:20:50.376Z,55.34
2017-08-02T21:23:18.700Z,55.47
2017-08-02T21:25:46.626Z,56.03
2017-08-02T21:28:14.588Z,56.30
2017-08-02T21:30:42.902Z,56.33
2017-08-02T21:33:10.834Z,56.06
2017-08-02T21:35:39.159Z,56.06
2017-08-02T21:38:07.090Z,56.18
2017-08-02T21:40:35.404Z,56.08
2017-08-02T21:43:03.670Z,56.03
2017-08-02T21:45:31.597Z,56.00
2017-08-02T21:47:59.512Z,56.53
2017-08-02T21:50:27.437Z,56.24
2017-08-02T21:52:55.748Z,56.30
2017-08-02T21:55:23.673Z,56.74
2017-08-02T21:57:51.614Z,56.37
2017-08-02T22:00:19.530Z,56.46
2017-08-02T22:02:47.906Z,57.02
2017-08-02T22:05:16.233Z,57.37
2017-08-02T22:07:44.157Z,57.84
2017-08-02T22:10:13.076Z,57.76
2017-08-02T22:12:41.006Z,57.40
2017-08-02T22:15:08.937Z,57.04
2017-08-02T22:17:36.852Z,58.31
2017-08-02T22:20:05.276Z,61.18
2017-08-02T22:22:33.196Z,59.73
2017-08-02T22:25:01.491Z,59.88
2017-08-02T22:27:29.804Z,59.54
2017-08-02T22:29:57.714Z,59.73
2017-08-02T22:32:25.634Z,59.60
2017-08-02T22:34:53.534Z,59.26
2017-08-02T22:37:21.641Z,58.95
2017-08-02T22:39:49.957Z,58.53
2017-08-02T22:42:17.877Z,59.26
2017-08-02T22:44:45.810Z,59.86
2017-08-02T22:47:13.732Z,59.53
2017-08-02T22:49:41.655Z,59.52
2017-08-02T22:52:09.574Z,59.45
2017-08-02T22:54:37.501Z,58.81
2017-08-02T22:57:05.411Z,59.01
2017-08-02T22:59:33.665Z,58.69
2017-08-02T23:02:01.969Z,58.69
2017-08-02T23:04:29.882Z,58.94
2017-08-02T23:06:58.352Z,58.97
2017-08-02T23:09:26.269Z,58.58
2017-08-02T23:11:54.978Z,58.88
2017-08-02T23:14:22.918Z,59.81
2017-08-02T23:16:51.236Z,59.63
2017-08-02T23:19:19.150Z,59.95
2017-08-02T23:21:47.226Z,60.11
2017-08-02T23:24:15.146Z,60.25
2017-08-02T23:26:43.060Z,60.24
2017-08-02T23:29:10.983Z,59.87
2017-08-02T23:31:38.896Z,59.41
2017-08-02T23:34:06.829Z,59.26
2017-08-02T23:36:34.750Z,59.07
2017-08-02T23:39:03.072Z,59.01
2017-08-02T23:41:30.988Z,58.78
2017-08-02T23:43:58.921Z,58.99
2017-08-02T23:46:26.835Z,58.78
2017-08-02T23:48:55.167Z,59.04
2017-08-02T23:51:23.090Z,59.61
2017-08-02T23:53:51.424Z,60.61
2017-08-02T23:56:19.343Z,60.87
2017-08-02T23:58:47.661Z,60.90
